sensor_id;sensor_type;location;lat;lon;timestamp;pressure;altitude;pressure_sealevel;temperature;humidity
71107;BME280;58763;47.982;11.516;2023-05-12T00:01:38;93844.72;;;8.75;90.83
71107;BME280;58763;47.982;11.516;2023-05-12T00:04:04;93836.56;;;8.85;90.17
71107;BME280;58763;47.982;11.516;2023-05-12T00:06:30;93839.53;;;8.84;89.90
71107;BME280;58763;47.982;11.516;2023-05-12T00:08:56;93843.34;;;8.78;90.15
71107;BME280;58763;47.982;11.516;2023-05-12T00:11:22;93842.84;;;8.76;90.49
71107;BME280;58763;47.982;11.516;2023-05-12T00:13:48;93832.91;;;8.71;90.60
71107;BME280;58763;47.982;11.516;2023-05-12T00:16:13;93838.28;;;8.71;90.56
71107;BME280;58763;47.982;11.516;2023-05-12T00:18:41;93830.69;;;8.78;90.57
71107;BME280;58763;47.982;11.516;2023-05-12T00:21:07;93833.94;;;8.75;90.63
71107;BME280;58763;47.982;11.516;2023-05-12T00:23:32;93831.81;;;8.72;90.97
71107;BME280;58763;47.982;11.516;2023-05-12T00:25:58;93835.06;;;8.69;90.86
71107;BME280;58763;47.982;11.516;2023-05-12T00:28:23;93827.22;;;8.73;91.23
71107;BME280;58763;47.982;11.516;2023-05-12T00:30:49;93832.28;;;8.84;90.67
71107;BME280;58763;47.982;11.516;2023-05-12T00:33:14;93833.66;;;8.77;90.76
71107;BME280;58763;47.982;11.516;2023-05-12T00:35:41;93827.13;;;8.83;91.03
71107;BME280;58763;47.982;11.516;2023-05-12T00:38:09;93820.03;;;8.92;90.28
71107;BME280;58763;47.982;11.516;2023-05-12T00:40:34;93818.63;;;8.99;90.03
71107;BME280;58763;47.982;11.516;2023-05-12T00:43:00;93812.09;;;9.05;89.59
71107;BME280;58763;47.982;11.516;2023-05-12T00:45:26;93819.28;;;9.15;89.67
71107;BME280;58763;47.982;11.516;2023-05-12T00:47:53;93820.84;;;8.92;90.04
71107;BME280;58763;47.982;11.516;2023-05-12T00:50:19;93815.72;;;8.96;90.34
71107;BME280;58763;47.982;11.516;2023-05-12T00:52:45;93820.19;;;9.05;89.30
71107;BME280;58763;47.982;11.516;2023-05-12T00:55:11;93818.69;;;8.94;89.93
71107;BME280;58763;47.982;11.516;2023-05-12T00:57:37;93818.16;;;8.92;90.19
71107;BME280;58763;47.982;11.516;2023-05-12T01:00:03;93816.69;;;9.05;89.90
71107;BME280;58763;47.982;11.516;2023-05-12T01:02:29;93816.69;;;9.05;89.50
71107;BME280;58763;47.982;11.516;2023-05-12T01:04:55;93811.00;;;9.07;89.28
71107;BME280;58763;47.982;11.516;2023-05-12T01:07:21;93815.59;;;9.06;89.43
71107;BME280;58763;47.982;11.516;2023-05-12T01:09:47;93814.75;;;9.11;88.58
71107;BME280;58763;47.982;11.516;2023-05-12T01:12:13;93816.19;;;9.03;89.44
71107;BME280;58763;47.982;11.516;2023-05-12T01:14:39;93812.38;;;9.04;89.33
71107;BME280;58763;47.982;11.516;2023-05-12T01:17:10;93811.63;;;8.98;89.46
71107;BME280;58763;47.982;11.516;2023-05-12T01:19:47;93816.50;;;8.96;89.57
71107;BME280;58763;47.982;11.516;2023-05-12T01:22:14;93808.66;;;9.00;89.56
71107;BME280;58763;47.982;11.516;2023-05-12T01:24:51;93818.13;;;8.97;89.18
71107;BME280;58763;47.982;11.516;2023-05-12T01:27:20;93806.78;;;9.00;89.46
71107;BME280;58763;47.982;11.516;2023-05-12T01:29:47;93805.97;;;9.00;89.49
71107;BME280;58763;47.982;11.516;2023-05-12T01:32:13;93803.53;;;8.98;89.06
71107;BME280;58763;47.982;11.516;2023-05-12T01:34:39;93804.38;;;8.94;88.96
71107;BME280;58763;47.982;11.516;2023-05-12T01:37:07;93802.03;;;8.87;89.21
71107;BME280;58763;47.982;11.516;2023-05-12T01:39:32;93805.00;;;8.86;89.87
71107;BME280;58763;47.982;11.516;2023-05-12T01:41:57;93808.00;;;8.84;89.86
71107;BME280;58763;47.982;11.516;2023-05-12T01:44:23;93806.81;;;8.95;88.93
71107;BME280;58763;47.982;11.516;2023-05-12T01:46:48;93809.16;;;9.02;88.85
71107;BME280;58763;47.982;11.516;2023-05-12T01:49:14;93809.50;;;8.95;89.56
71107;BME280;58763;47.982;11.516;2023-05-12T01:51:39;93811.69;;;8.93;89.36
71107;BME280;58763;47.982;11.516;2023-05-12T01:54:05;93810.91;;;8.88;88.77
71107;BME280;58763;47.982;11.516;2023-05-12T01:56:30;93812.59;;;8.84;89.35
71107;BME280;58763;47.982;11.516;2023-05-12T01:58:56;93803.16;;;8.81;89.48
71107;BME280;58763;47.982;11.516;2023-05-12T02:01:21;93809.31;;;8.87;89.36
71107;BME280;58763;47.982;11.516;2023-05-12T02:03:49;93807.53;;;8.77;89.25
71107;BME280;58763;47.982;11.516;2023-05-12T02:06:15;93806.47;;;8.73;90.00
71107;BME280;58763;47.982;11.516;2023-05-12T02:08:41;93810.25;;;8.72;89.81
71107;BME280;58763;47.982;11.516;2023-05-12T02:11:07;93807.53;;;8.77;90.13
71107;BME280;58763;47.982;11.516;2023-05-12T02:13:32;93800.75;;;8.80;90.12
71107;BME280;58763;47.982;11.516;2023-05-12T02:15:59;93808.03;;;8.79;90.28
71107;BME280;58763;47.982;11.516;2023-05-12T02:18:24;93803.69;;;8.83;89.97
71107;BME280;58763;47.982;11.516;2023-05-12T02:20:50;93801.03;;;8.78;90.47
71107;BME280;58763;47.982;11.516;2023-05-12T02:23:15;93801.00;;;8.83;90.24
71107;BME280;58763;47.982;11.516;2023-05-12T02:25:41;93804.72;;;8.87;90.19
71107;BME280;58763;47.982;11.516;2023-05-12T02:28:07;93807.38;;;8.92;90.31
71107;BME280;58763;47.982;11.516;2023-05-12T02:30:36;93806.91;;;8.85;90.72
71107;BME280;58763;47.982;11.516;2023-05-12T02:33:01;93807.63;;;8.96;90.18
71107;BME280;58763;47.982;11.516;2023-05-12T02:35:29;93807.84;;;8.99;89.54
71107;BME280;58763;47.982;11.516;2023-05-12T02:37:55;93799.25;;;8.97;89.84
71107;BME280;58763;47.982;11.516;2023-05-12T02:40:20;93799.84;;;8.89;89.62
71107;BME280;58763;47.982;11.516;2023-05-12T02:42:46;93809.03;;;8.88;90.22
71107;BME280;58763;47.982;11.516;2023-05-12T02:45:11;93811.69;;;8.93;89.94
71107;BME280;58763;47.982;11.516;2023-05-12T02:47:37;93812.84;;;8.82;89.96
71107;BME280;58763;47.982;11.516;2023-05-12T02:50:03;93811.78;;;8.83;90.08
71107;BME280;58763;47.982;11.516;2023-05-12T02:52:28;93815.13;;;8.70;90.55
71107;BME280;58763;47.982;11.516;2023-05-12T02:54:55;93815.50;;;8.59;91.02
71107;BME280;58763;47.982;11.516;2023-05-12T02:57:21;93814.16;;;8.56;91.30
71107;BME280;58763;47.982;11.516;2023-05-12T02:59:46;93813.31;;;8.61;91.38
71107;BME280;58763;47.982;11.516;2023-05-12T03:02:12;93817.41;;;8.53;91.39
71107;BME280;58763;47.982;11.516;2023-05-12T03:04:37;93813.47;;;8.41;91.55
71107;BME280;58763;47.982;11.516;2023-05-12T03:07:03;93815.66;;;8.33;92.15
71107;BME280;58763;47.982;11.516;2023-05-12T03:09:28;93815.44;;;8.25;92.80
71107;BME280;58763;47.982;11.516;2023-05-12T03:11:54;93819.78;;;8.21;93.17
71107;BME280;58763;47.982;11.516;2023-05-12T03:14:19;93813.91;;;8.14;93.60
71107;BME280;58763;47.982;11.516;2023-05-12T03:16:45;93810.91;;;8.15;93.58
71107;BME280;58763;47.982;11.516;2023-05-12T03:19:11;93818.72;;;8.17;93.63
71107;BME280;58763;47.982;11.516;2023-05-12T03:21:36;93821.13;;;8.23;94.02
71107;BME280;58763;47.982;11.516;2023-05-12T03:24:02;93815.44;;;8.30;93.51
71107;BME280;58763;47.982;11.516;2023-05-12T03:26:28;93816.47;;;8.34;93.45
71107;BME280;58763;47.982;11.516;2023-05-12T03:28:53;93810.81;;;8.35;93.25
71107;BME280;58763;47.982;11.516;2023-05-12T03:31:18;93808.66;;;8.38;93.00
71107;BME280;58763;47.982;11.516;2023-05-12T03:33:44;93814.53;;;8.45;92.76
71107;BME280;58763;47.982;11.516;2023-05-12T03:36:10;93813.09;;;8.52;92.53
71107;BME280;58763;47.982;11.516;2023-05-12T03:38:35;93816.38;;;8.49;92.25
71107;BME280;58763;47.982;11.516;2023-05-12T03:41:07;93811.78;;;8.50;92.44
71107;BME280;58763;47.982;11.516;2023-05-12T03:43:32;93818.50;;;8.52;91.99
71107;BME280;58763;47.982;11.516;2023-05-12T03:45:58;93810.69;;;8.51;92.19
71107;BME280;58763;47.982;11.516;2023-05-12T03:48:24;93816.38;;;8.49;92.64
71107;BME280;58763;47.982;11.516;2023-05-12T03:50:50;93815.81;;;8.52;92.61
71107;BME280;58763;47.982;11.516;2023-05-12T03:53:15;93806.09;;;8.56;91.96
71107;BME280;58763;47.982;11.516;2023-05-12T03:55:41;93812.22;;;8.62;91.51
71107;BME280;58763;47.982;11.516;2023-05-12T03:58:07;93816.28;;;8.59;91.40
71107;BME280;58763;47.982;11.516;2023-05-12T04:00:33;93819.22;;;8.63;91.26
71107;BME280;58763;47.982;11.516;2023-05-12T04:02:58;93811.38;;;8.66;90.86
71107;BME280;58763;47.982;11.516;2023-05-12T04:05:24;93812.59;;;8.50;91.67
71107;BME280;58763;47.982;11.516;2023-05-12T04:07:50;93813.59;;;8.59;91.75
71107;BME280;58763;47.982;11.516;2023-05-12T04:10:15;93818.19;;;8.59;91.94
71107;BME280;58763;47.982;11.516;2023-05-12T04:12:41;93808.50;;;8.58;91.49
71107;BME280;58763;47.982;11.516;2023-05-12T04:15:07;93811.78;;;8.50;92.09
71107;BME280;58763;47.982;11.516;2023-05-12T04:17:33;93810.50;;;8.42;92.16
71107;BME280;58763;47.982;11.516;2023-05-12T04:19:58;93817.25;;;8.40;92.36
71107;BME280;58763;47.982;11.516;2023-05-12T04:22:24;93825.31;;;8.45;92.21
71107;BME280;58763;47.982;11.516;2023-05-12T04:24:49;93818.63;;;8.37;92.59
71107;BME280;58763;47.982;11.516;2023-05-12T04:27:15;93825.19;;;8.26;92.94
71107;BME280;58763;47.982;11.516;2023-05-12T04:29:41;93829.16;;;8.28;93.00
71107;BME280;58763;47.982;11.516;2023-05-12T04:32:06;93830.28;;;8.27;93.26
71107;BME280;58763;47.982;11.516;2023-05-12T04:34:32;93828.66;;;8.26;93.52
71107;BME280;58763;47.982;11.516;2023-05-12T04:36:58;93836.72;;;8.21;93.64
71107;BME280;58763;47.982;11.516;2023-05-12T04:39:23;93836.72;;;8.21;93.16
71107;BME280;58763;47.982;11.516;2023-05-12T04:41:48;93838.13;;;8.19;93.30
71107;BME280;58763;47.982;11.516;2023-05-12T04:44:14;93838.34;;;8.22;93.58
71107;BME280;58763;47.982;11.516;2023-05-12T04:46:40;93838.88;;;8.29;93.07
71107;BME280;58763;47.982;11.516;2023-05-12T04:49:07;93849.41;;;8.26;93.22
71107;BME280;58763;47.982;11.516;2023-05-12T04:51:32;93842.38;;;8.25;92.92
71107;BME280;58763;47.982;11.516;2023-05-12T04:53:58;93841.03;;;8.27;93.13
71107;BME280;58763;47.982;11.516;2023-05-12T04:56:23;93845.56;;;8.37;92.79
71107;BME280;58763;47.982;11.516;2023-05-12T04:58:49;93848.28;;;8.32;92.52
71107;BME280;58763;47.982;11.516;2023-05-12T05:01:14;93852.59;;;8.33;92.69
71107;BME280;58763;47.982;11.516;2023-05-12T05:03:40;93841.75;;;8.43;93.29
71107;BME280;58763;47.982;11.516;2023-05-12T05:06:05;93848.47;;;8.46;92.92
71107;BME280;58763;47.982;11.516;2023-05-12T05:08:31;93844.69;;;8.47;93.08
71107;BME280;58763;47.982;11.516;2023-05-12T05:10:56;93844.09;;;8.50;92.63
71107;BME280;58763;47.982;11.516;2023-05-12T05:13:22;93842.50;;;8.54;92.71
71107;BME280;58763;47.982;11.516;2023-05-12T05:15:49;93845.41;;;8.57;92.62
71107;BME280;58763;47.982;11.516;2023-05-12T05:18:14;93843.56;;;8.53;92.64
71107;BME280;58763;47.982;11.516;2023-05-12T05:20:40;93844.59;;;8.57;92.69
71107;BME280;58763;47.982;11.516;2023-05-12T05:23:05;93850.78;;;8.57;93.34
71107;BME280;58763;47.982;11.516;2023-05-12T05:25:31;93849.69;;;8.63;93.06
71107;BME280;58763;47.982;11.516;2023-05-12T05:27:57;93848.56;;;8.69;92.59
71107;BME280;58763;47.982;11.516;2023-05-12T05:30:22;93853.06;;;8.79;92.25
71107;BME280;58763;47.982;11.516;2023-05-12T05:32:48;93855.25;;;8.77;92.58
71107;BME280;58763;47.982;11.516;2023-05-12T05:35:13;93849.84;;;8.77;92.23
71107;BME280;58763;47.982;11.516;2023-05-12T05:37:39;93855.47;;;8.80;92.30
71107;BME280;58763;47.982;11.516;2023-05-12T05:40:06;93855.19;;;8.82;92.73
71107;BME280;58763;47.982;11.516;2023-05-12T05:42:31;93850.59;;;8.82;92.47
71107;BME280;58763;47.982;11.516;2023-05-12T05:44:57;93862.97;;;8.88;92.47
71107;BME280;58763;47.982;11.516;2023-05-12T05:47:23;93858.38;;;8.89;92.90
71107;BME280;58763;47.982;11.516;2023-05-12T05:49:48;93862.03;;;9.03;92.41
71107;BME280;58763;47.982;11.516;2023-05-12T05:52:14;93857.94;;;9.05;91.77
71107;BME280;58763;47.982;11.516;2023-05-12T05:54:39;93862.72;;;9.14;91.46
71107;BME280;58763;47.982;11.516;2023-05-12T05:57:05;93859.56;;;9.07;91.71
71107;BME280;58763;47.982;11.516;2023-05-12T05:59:31;93861.06;;;9.18;91.83
71107;BME280;58763;47.982;11.516;2023-05-12T06:01:57;93854.06;;;9.17;92.19
71107;BME280;58763;47.982;11.516;2023-05-12T06:04:23;93862.16;;;9.17;91.83
71107;BME280;58763;47.982;11.516;2023-05-12T06:06:48;93861.09;;;9.13;92.16
71107;BME280;58763;47.982;11.516;2023-05-12T06:09:14;93866.03;;;9.05;92.75
71107;BME280;58763;47.982;11.516;2023-05-12T06:11:40;93864.41;;;9.10;92.61
71107;BME280;58763;47.982;11.516;2023-05-12T06:14:05;93872.19;;;9.11;92.38
71107;BME280;58763;47.982;11.516;2023-05-12T06:16:31;93869.44;;;9.16;92.43
71107;BME280;58763;47.982;11.516;2023-05-12T06:18:56;93865.84;;;9.26;91.84
71107;BME280;58763;47.982;11.516;2023-05-12T06:21:22;93867.13;;;9.33;91.06
71107;BME280;58763;47.982;11.516;2023-05-12T06:23:47;93857.75;;;9.26;91.43
71107;BME280;58763;47.982;11.516;2023-05-12T06:26:13;93873.91;;;9.31;91.06
71107;BME280;58763;47.982;11.516;2023-05-12T06:28:38;93870.69;;;9.29;91.59
71107;BME280;58763;47.982;11.516;2023-05-12T06:31:07;93874.38;;;9.38;91.01
71107;BME280;58763;47.982;11.516;2023-05-12T06:33:33;93874.63;;;9.36;91.22
71107;BME280;58763;47.982;11.516;2023-05-12T06:35:58;93879.69;;;9.43;91.33
71107;BME280;58763;47.982;11.516;2023-05-12T06:38:24;93874.19;;;9.53;91.23
71107;BME280;58763;47.982;11.516;2023-05-12T06:40:49;93878.47;;;9.59;90.94
71107;BME280;58763;47.982;11.516;2023-05-12T06:43:15;93883.09;;;9.53;90.26
71107;BME280;58763;47.982;11.516;2023-05-12T06:45:40;93886.16;;;9.47;90.21
71107;BME280;58763;47.982;11.516;2023-05-12T06:48:06;93885.25;;;9.56;90.40
71107;BME280;58763;47.982;11.516;2023-05-12T06:50:31;93894.41;;;9.55;90.70
71107;BME280;58763;47.982;11.516;2023-05-12T06:52:56;93888.50;;;9.53;90.42
71107;BME280;58763;47.982;11.516;2023-05-12T06:55:22;93887.13;;;9.56;90.16
71107;BME280;58763;47.982;11.516;2023-05-12T06:57:48;93882.47;;;9.61;90.74
71107;BME280;58763;47.982;11.516;2023-05-12T07:00:15;93887.19;;;9.51;90.71
71107;BME280;58763;47.982;11.516;2023-05-12T07:02:41;93890.41;;;9.53;90.94
71107;BME280;58763;47.982;11.516;2023-05-12T07:05:07;93885.47;;;9.60;91.48
71107;BME280;58763;47.982;11.516;2023-05-12T07:07:32;93884.34;;;9.66;91.07
71107;BME280;58763;47.982;11.516;2023-05-12T07:09:59;93894.19;;;9.75;90.59
71107;BME280;58763;47.982;11.516;2023-05-12T07:12:25;93882.00;;;9.78;90.68
71107;BME280;58763;47.982;11.516;2023-05-12T07:14:50;93884.44;;;9.80;90.88
71107;BME280;58763;47.982;11.516;2023-05-12T07:17:16;93880.28;;;9.87;90.88
71107;BME280;58763;47.982;11.516;2023-05-12T07:19:41;93885.88;;;9.96;90.98
71107;BME280;58763;47.982;11.516;2023-05-12T07:22:07;93882.47;;;10.09;90.55
71107;BME280;58763;47.982;11.516;2023-05-12T07:24:33;93875.06;;;10.19;90.54
71107;BME280;58763;47.982;11.516;2023-05-12T07:26:58;93877.28;;;10.17;89.99
71107;BME280;58763;47.982;11.516;2023-05-12T07:29:24;93873.41;;;10.42;90.61
71107;BME280;58763;47.982;11.516;2023-05-12T07:31:49;93878.06;;;10.55;88.15
71107;BME280;58763;47.982;11.516;2023-05-12T07:34:15;93881.06;;;10.54;86.95
71107;BME280;58763;47.982;11.516;2023-05-12T07:36:40;93873.09;;;10.62;86.54
71107;BME280;58763;47.982;11.516;2023-05-12T07:39:06;93884.28;;;10.74;84.98
71107;BME280;58763;47.982;11.516;2023-05-12T07:41:31;93872.38;;;10.94;84.24
71107;BME280;58763;47.982;11.516;2023-05-12T07:43:57;93875.25;;;10.97;83.98
71107;BME280;58763;47.982;11.516;2023-05-12T07:46:23;93872.59;;;11.11;82.11
71107;BME280;58763;47.982;11.516;2023-05-12T07:48:48;93879.06;;;11.15;82.28
71107;BME280;58763;47.982;11.516;2023-05-12T07:51:14;93880.06;;;11.19;83.91
71107;BME280;58763;47.982;11.516;2023-05-12T07:53:40;93880.66;;;11.30;83.77
71107;BME280;58763;47.982;11.516;2023-05-12T07:56:05;93882.72;;;11.38;83.13
71107;BME280;58763;47.982;11.516;2023-05-12T07:58:32;93881.56;;;11.57;81.62
71107;BME280;58763;47.982;11.516;2023-05-12T08:00:58;93880.94;;;11.60;80.30
71107;BME280;58763;47.982;11.516;2023-05-12T08:03:24;93882.16;;;11.54;79.75
71107;BME280;58763;47.982;11.516;2023-05-12T08:05:50;93884.97;;;11.63;80.50
71107;BME280;58763;47.982;11.516;2023-05-12T08:08:15;93881.28;;;11.72;80.63
71107;BME280;58763;47.982;11.516;2023-05-12T08:10:42;93881.91;;;11.83;80.74
71107;BME280;58763;47.982;11.516;2023-05-12T08:13:08;93872.66;;;11.84;80.60
71107;BME280;58763;47.982;11.516;2023-05-12T08:15:34;93880.22;;;11.87;80.39
71107;BME280;58763;47.982;11.516;2023-05-12T08:18:00;93878.59;;;12.00;78.20
71107;BME280;58763;47.982;11.516;2023-05-12T08:20:26;93873.38;;;12.03;77.72
71107;BME280;58763;47.982;11.516;2023-05-12T08:22:51;93871.78;;;12.16;79.43
71107;BME280;58763;47.982;11.516;2023-05-12T08:25:17;93873.78;;;12.10;80.46
71107;BME280;58763;47.982;11.516;2023-05-12T08:27:42;93886.13;;;12.16;78.67
71107;BME280;58763;47.982;11.516;2023-05-12T08:30:08;93878.19;;;12.20;78.55
71107;BME280;58763;47.982;11.516;2023-05-12T08:32:34;93874.16;;;12.31;76.11
71107;BME280;58763;47.982;11.516;2023-05-12T08:35:00;93880.78;;;12.38;75.00
71107;BME280;58763;47.982;11.516;2023-05-12T08:37:25;93872.66;;;12.38;74.89
71107;BME280;58763;47.982;11.516;2023-05-12T08:39:51;93879.13;;;12.51;75.58
71107;BME280;58763;47.982;11.516;2023-05-12T08:45:05;93877.72;;;12.54;75.50
71107;BME280;58763;47.982;11.516;2023-05-12T08:47:32;93880.75;;;12.52;75.11
71107;BME280;58763;47.982;11.516;2023-05-12T08:50:00;93883.88;;;12.45;73.72
71107;BME280;58763;47.982;11.516;2023-05-12T08:52:36;93883.78;;;12.37;74.36
71107;BME280;58763;47.982;11.516;2023-05-12T08:55:03;93886.00;;;12.35;75.64
71107;BME280;58763;47.982;11.516;2023-05-12T08:57:30;93881.09;;;12.23;76.04
71107;BME280;58763;47.982;11.516;2023-05-12T08:59:56;93878.59;;;12.27;77.91
71107;BME280;58763;47.982;11.516;2023-05-12T09:02:23;93874.25;;;12.39;77.01
71107;BME280;58763;47.982;11.516;2023-05-12T09:04:50;93879.28;;;12.46;76.26
71107;BME280;58763;47.982;11.516;2023-05-12T09:07:17;93877.34;;;12.60;76.22
71107;BME280;58763;47.982;11.516;2023-05-12T09:09:44;93880.78;;;12.74;76.08
71107;BME280;58763;47.982;11.516;2023-05-12T09:12:14;93878.31;;;12.64;75.23
71107;BME280;58763;47.982;11.516;2023-05-12T09:14:44;93881.72;;;12.70;75.85
71107;BME280;58763;47.982;11.516;2023-05-12T09:17:10;93878.22;;;12.69;76.69
71107;BME280;58763;47.982;11.516;2023-05-12T09:19:37;93874.25;;;12.75;73.54
71107;BME280;58763;47.982;11.516;2023-05-12T09:22:02;93881.91;;;12.73;75.03
71107;BME280;58763;47.982;11.516;2023-05-12T09:27:00;93881.09;;;12.73;74.84
71107;BME280;58763;47.982;11.516;2023-05-12T09:29:26;93886.41;;;12.78;73.17
71107;BME280;58763;47.982;11.516;2023-05-12T09:31:53;93889.06;;;12.69;73.27
71107;BME280;58763;47.982;11.516;2023-05-12T09:34:26;93888.28;;;12.91;73.22
71107;BME280;58763;47.982;11.516;2023-05-12T09:37:00;93885.44;;;12.96;72.93
71107;BME280;58763;47.982;11.516;2023-05-12T09:39:26;93879.59;;;13.02;72.16
71107;BME280;58763;47.982;11.516;2023-05-12T09:41:53;93890.84;;;13.09;71.47
71107;BME280;58763;47.982;11.516;2023-05-12T09:44:19;93882.69;;;13.23;72.52
71107;BME280;58763;47.982;11.516;2023-05-12T09:46:45;93886.84;;;13.29;72.27
71107;BME280;58763;47.982;11.516;2023-05-12T09:49:11;93889.19;;;13.44;71.13
71107;BME280;58763;47.982;11.516;2023-05-12T09:51:37;93888.28;;;13.49;71.45
71107;BME280;58763;47.982;11.516;2023-05-12T09:54:04;93888.63;;;13.56;71.03
71107;BME280;58763;47.982;11.516;2023-05-12T09:56:29;93899.72;;;13.68;71.26
71107;BME280;58763;47.982;11.516;2023-05-12T09:59:02;93878.81;;;13.77;70.78
71107;BME280;58763;47.982;11.516;2023-05-12T10:01:28;93883.28;;;13.73;70.30
71107;BME280;58763;47.982;11.516;2023-05-12T10:03:55;93885.72;;;13.74;68.55
71107;BME280;58763;47.982;11.516;2023-05-12T10:06:25;93881.09;;;13.53;69.90
71107;BME280;58763;47.982;11.516;2023-05-12T10:09:13;93883.53;;;13.63;70.56
71107;BME280;58763;47.982;11.516;2023-05-12T10:11:41;93886.63;;;13.70;70.72
71107;BME280;58763;47.982;11.516;2023-05-12T10:14:07;93887.03;;;13.55;68.95
71107;BME280;58763;47.982;11.516;2023-05-12T10:16:34;93881.09;;;13.53;67.81
71107;BME280;58763;47.982;11.516;2023-05-12T10:19:02;93892.09;;;13.48;68.58
71107;BME280;58763;47.982;11.516;2023-05-12T10:21:28;93887.59;;;13.43;70.62
71107;BME280;58763;47.982;11.516;2023-05-12T10:23:55;93880.50;;;13.34;68.66
71107;BME280;58763;47.982;11.516;2023-05-12T10:26:21;93889.75;;;13.33;70.41
71107;BME280;58763;47.982;11.516;2023-05-12T10:28:48;93886.16;;;13.24;68.13
71107;BME280;58763;47.982;11.516;2023-05-12T10:31:14;93886.47;;;13.22;69.53
71107;BME280;58763;47.982;11.516;2023-05-12T10:33:40;93887.91;;;13.20;70.76
71107;BME280;58763;47.982;11.516;2023-05-12T10:36:16;93894.38;;;13.10;71.18
71107;BME280;58763;47.982;11.516;2023-05-12T10:38:42;93891.50;;;13.06;72.07
71107;BME280;58763;47.982;11.516;2023-05-12T10:41:07;93890.97;;;13.04;70.51
71107;BME280;58763;47.982;11.516;2023-05-12T10:43:41;93895.88;;;13.02;71.05
71107;BME280;58763;47.982;11.516;2023-05-12T10:46:17;93887.16;;;13.05;71.71
71107;BME280;58763;47.982;11.516;2023-05-12T10:48:54;93898.88;;;13.14;71.58
71107;BME280;58763;47.982;11.516;2023-05-12T10:51:21;93897.47;;;13.17;71.30
71107;BME280;58763;47.982;11.516;2023-05-12T10:54:06;93893.69;;;13.04;72.91
71107;BME280;58763;47.982;11.516;2023-05-12T11:01:38;93900.66;;;13.19;72.46
71107;BME280;58763;47.982;11.516;2023-05-12T11:04:15;93892.41;;;13.24;72.77
71107;BME280;58763;47.982;11.516;2023-05-12T11:06:42;93896.63;;;13.30;71.10
71107;BME280;58763;47.982;11.516;2023-05-12T11:09:08;93896.78;;;13.34;71.06
71107;BME280;58763;47.982;11.516;2023-05-12T11:11:35;93901.00;;;13.18;71.82
71107;BME280;58763;47.982;11.516;2023-05-12T11:14:01;93901.25;;;13.30;72.20
71107;BME280;58763;47.982;11.516;2023-05-12T11:16:26;93903.13;;;13.51;72.42
71107;BME280;58763;47.982;11.516;2023-05-12T11:19:03;93906.03;;;13.55;72.69
71107;BME280;58763;47.982;11.516;2023-05-12T11:21:30;93906.72;;;13.38;73.16
71107;BME280;58763;47.982;11.516;2023-05-12T11:23:56;93905.44;;;13.36;72.17
71107;BME280;58763;47.982;11.516;2023-05-12T11:26:23;93903.06;;;13.43;72.68
71107;BME280;58763;47.982;11.516;2023-05-12T11:28:48;93906.16;;;13.50;72.65
71107;BME280;58763;47.982;11.516;2023-05-12T11:31:20;93901.56;;;13.59;71.79
71107;BME280;58763;47.982;11.516;2023-05-12T11:33:46;93901.84;;;13.79;71.50
71107;BME280;58763;47.982;11.516;2023-05-12T11:36:12;93906.88;;;13.86;70.24
71107;BME280;58763;47.982;11.516;2023-05-12T11:38:37;93912.81;;;13.97;71.16
71107;BME280;58763;47.982;11.516;2023-05-12T11:41:03;93906.19;;;14.11;70.82
71107;BME280;58763;47.982;11.516;2023-05-12T11:43:28;93909.03;;;14.06;69.71
71107;BME280;58763;47.982;11.516;2023-05-12T11:45:54;93904.03;;;14.30;70.56
71107;BME280;58763;47.982;11.516;2023-05-12T11:48:20;93904.81;;;14.31;69.58
71107;BME280;58763;47.982;11.516;2023-05-12T11:50:47;93902.28;;;14.34;68.83
71107;BME280;58763;47.982;11.516;2023-05-12T11:53:16;93907.94;;;14.55;69.51
71107;BME280;58763;47.982;11.516;2023-05-12T11:55:54;93902.66;;;14.50;66.62
71107;BME280;58763;47.982;11.516;2023-05-12T11:58:25;93908.91;;;14.50;67.24
71107;BME280;58763;47.982;11.516;2023-05-12T12:00:52;93908.13;;;14.67;67.54
71107;BME280;58763;47.982;11.516;2023-05-12T12:03:17;93901.13;;;14.75;67.71
71107;BME280;58763;47.982;11.516;2023-05-12T12:05:56;93904.94;;;14.74;67.23
71107;BME280;58763;47.982;11.516;2023-05-12T12:08:22;93912.47;;;14.77;66.87
71107;BME280;58763;47.982;11.516;2023-05-12T12:10:47;93913.41;;;14.64;67.63
71107;BME280;58763;47.982;11.516;2023-05-12T12:13:23;93906.56;;;14.75;66.29
71107;BME280;58763;47.982;11.516;2023-05-12T12:15:50;93907.53;;;14.79;67.71
71107;BME280;58763;47.982;11.516;2023-05-12T12:18:16;93904.28;;;14.60;68.04
71107;BME280;58763;47.982;11.516;2023-05-12T12:20:44;93910.06;;;14.75;68.19
71107;BME280;58763;47.982;11.516;2023-05-12T12:23:10;93905.28;;;14.89;66.42
71107;BME280;58763;47.982;11.516;2023-05-12T12:25:36;93905.28;;;14.89;67.42
71107;BME280;58763;47.982;11.516;2023-05-12T12:28:02;93900.31;;;14.83;65.97
71107;BME280;58763;47.982;11.516;2023-05-12T12:30:27;93911.03;;;14.79;66.23
71107;BME280;58763;47.982;11.516;2023-05-12T12:32:53;93902.72;;;14.93;64.55
71107;BME280;58763;47.982;11.516;2023-05-12T12:35:18;93908.19;;;15.01;63.98
71107;BME280;58763;47.982;11.516;2023-05-12T12:37:44;93899.53;;;14.91;63.90
71107;BME280;58763;47.982;11.516;2023-05-12T12:40:17;93909.75;;;14.94;65.11
71107;BME280;58763;47.982;11.516;2023-05-12T12:42:43;93902.91;;;15.13;64.81
71107;BME280;58763;47.982;11.516;2023-05-12T12:45:09;93903.06;;;15.26;66.01
71107;BME280;58763;47.982;11.516;2023-05-12T12:47:35;93904.50;;;15.23;66.65
71107;BME280;58763;47.982;11.516;2023-05-12T12:50:01;93903.38;;;15.33;68.76
71107;BME280;58763;47.982;11.516;2023-05-12T12:52:27;93896.97;;;15.37;65.96
71107;BME280;58763;47.982;11.516;2023-05-12T12:54:52;93903.06;;;15.51;64.99
71107;BME280;58763;47.982;11.516;2023-05-12T12:57:18;93899.19;;;15.44;64.74
71107;BME280;58763;47.982;11.516;2023-05-12T12:59:46;93907.22;;;15.32;61.32
71107;BME280;58763;47.982;11.516;2023-05-12T13:02:12;93903.38;;;15.33;61.68